Time;durP1;ratioP1;P1;durP2;ratioP2;P2;SDS_P1;SDS_P2;PMS_P1;PMS_P2;Temp;Humidity;BMP_temperature;BMP_pressure;BME280_temperature;BME280_humidity;BME280_pressure;Samples;Min_cycle;Max_cycle;Signal;HPM_P1;HPM_P2
2023/02/01 00:00:34;;;;;;;;;;;;;;;16.65;68.68;100946.38;7405272;19;1757;-42
2023/02/01 00:03:02;;;;;;;;;;;;;;;16.58;69.28;100923.75;7405933;19;1733;-42
2023/02/01 00:05:33;;;;;;;;;;;;;;;16.47;69.29;100921.03;7404863;19;2057;-42
2023/02/01 00:08:01;;;;;;;;;;;;;;;16.46;69.65;100949.56;7405280;19;1668;-42
2023/02/01 00:10:30;;;;;;;;;;;;;;;16.38;69.18;100932.41;7405224;19;1771;-42
2023/02/01 00:12:58;;;;;;;;;;;;;;;16.34;69.70;100938.94;7405030;19;1542;-42
2023/02/01 00:15:26;;;;;;;;;;;;;;;16.38;69.52;100927.91;7404696;19;1628;-42
2023/02/01 00:17:55;;;;;;;;;;;;;;;16.99;67.73;100930.47;7405333;19;1710;-42
2023/02/01 00:20:24;;;;;;;;;;;;;;;17.19;67.42;100930.72;7404589;19;2061;-42
2023/02/01 00:22:55;;;;;;;;;;;;;;;16.75;67.30;100937.63;7405295;19;1692;-42
2023/02/01 00:25:23;;;;;;;;;;;;;;;16.41;68.67;100942.84;7404693;19;1636;-42
2023/02/01 00:27:52;;;;;;;;;;;;;;;16.19;69.16;100948.91;7401740;19;1842;-42
2023/02/01 00:30:20;;;;;;;;;;;;;;;16.06;69.96;100928.50;7404973;19;1868;-42
2023/02/01 00:32:48;;;;;;;;;;;;;;;16.02;69.80;100947.50;7404892;19;1687;-42
2023/02/01 00:35:17;;;;;;;;;;;;;;;15.94;70.14;100944.53;7404189;19;1991;-42
2023/02/01 00:37:45;;;;;;;;;;;;;;;15.89;70.03;100937.69;7404571;19;1690;-42
2023/02/01 00:40:16;;;;;;;;;;;;;;;15.85;69.85;100932.72;7404244;19;1894;-42
2023/02/01 00:42:45;;;;;;;;;;;;;;;15.83;70.12;100926.63;7403547;19;1808;-42
2023/02/01 00:45:13;;;;;;;;;;;;;;;15.79;69.66;100941.16;7404426;19;1617;-42
2023/02/01 00:47:41;;;;;;;;;;;;;;;15.82;69.86;100939.13;7400958;19;2043;-42
2023/02/01 00:50:10;;;;;;;;;;;;;;;15.79;69.65;100954.47;7403626;19;1762;-42
2023/02/01 00:52:38;;;;;;;;;;;;;;;15.76;69.69;100946.72;7404822;19;1476;-42
2023/02/01 00:55:07;;;;;;;;;;;;;;;15.76;69.75;100946.72;7404040;19;1735;-42
2023/02/01 00:57:38;;;;;;;;;;;;;;;15.71;69.76;100933.66;7401906;19;1488;-43
2023/02/01 01:00:07;;;;;;;;;;;;;;;15.71;69.74;100939.84;7403629;19;1657;-42
2023/02/01 01:02:35;;;;;;;;;;;;;;;15.71;69.83;100949.66;7403317;19;1872;-42
2023/02/01 01:05:03;;;;;;;;;;;;;;;15.66;69.79;100946.50;7402818;19;1723;-42
2023/02/01 01:07:32;;;;;;;;;;;;;;;15.62;69.75;100940.53;7401919;19;1856;-42
2023/02/01 01:10:00;;;;;;;;;;;;;;;15.57;69.75;100937.31;7403429;19;1532;-42
2023/02/01 01:12:28;;;;;;;;;;;;;;;15.56;69.78;100934.75;7403421;19;1722;-42
2023/02/01 01:14:59;;;;;;;;;;;;;;;15.54;69.83;100942.88;7402678;19;2046;-42
2023/02/01 01:17:27;;;;;;;;;;;;;;;15.52;69.97;100937.66;7402600;19;1718;-42
2023/02/01 01:19:56;;;;;;;;;;;;;;;15.49;70.03;100929.00;7402194;19;1578;-42
2023/02/01 01:22:24;;;;;;;;;;;;;;;15.49;70.00;100951.19;7403295;19;1732;-42
2023/02/01 01:24:52;;;;;;;;;;;;;;;15.46;70.23;100921.25;7402980;19;1567;-42
2023/02/01 01:27:23;;;;;;;;;;;;;;;15.46;69.96;100934.56;7401626;19;1867;-42
2023/02/01 01:29:52;;;;;;;;;;;;;;;15.44;70.03;100933.84;7403030;19;1990;-42
2023/02/01 01:32:23;;;;;;;;;;;;;;;15.40;69.79;100935.84;7404126;19;1932;-42
2023/02/01 01:34:51;;;;;;;;;;;;;;;15.42;69.97;100933.06;7404036;19;1982;-42
2023/02/01 01:37:19;;;;;;;;;;;;;;;15.39;69.95;100927.97;7404494;19;2139;-42
2023/02/01 01:39:47;;;;;;;;;;;;;;;15.38;70.23;100923.59;7404317;19;1837;-42
2023/02/01 01:42:16;;;;;;;;;;;;;;;15.34;70.00;100936.28;7403621;19;2093;-42
2023/02/01 01:44:59;;;;;;;;;;;;;;;15.34;70.22;100930.97;7402596;19;2075;-43
2023/02/01 01:47:33;;;;;;;;;;;;;;;15.32;70.02;100924.88;7401742;19;2016;-42
2023/02/01 01:50:01;;;;;;;;;;;;;;;15.30;70.10;100926.81;7402960;19;2047;-42
2023/02/01 01:52:30;;;;;;;;;;;;;;;15.29;69.77;100915.28;7403467;19;1833;-42
2023/02/01 01:55:01;;;;;;;;;;;;;;;15.31;69.91;100932.00;7401849;19;1733;-43
2023/02/01 01:57:32;;;;;;;;;;;;;;;15.33;69.77;100918.59;7401920;19;1879;-42
2023/02/01 02:00:02;;;;;;;;;;;;;;;15.34;69.81;100932.75;7402748;19;2067;-42
2023/02/01 02:02:33;;;;;;;;;;;;;;;15.37;69.94;100938.72;7401462;19;2171;-42
2023/02/01 02:05:01;;;;;;;;;;;;;;;15.29;69.91;100917.09;7401950;19;2065;-42
2023/02/01 02:07:32;;;;;;;;;;;;;;;15.30;69.69;100925.00;7402373;19;1864;-43
2023/02/01 02:10:00;;;;;;;;;;;;;;;15.27;69.76;100929.69;7402668;19;1901;-42
2023/02/01 02:12:29;;;;;;;;;;;;;;;15.26;69.73;100927.94;7403586;19;1572;-42
2023/02/01 02:14:57;;;;;;;;;;;;;;;15.26;69.76;100938.59;7401453;19;1865;-42
2023/02/01 02:17:38;;;;;;;;;;;;;;;15.19;69.86;100926.69;7401924;19;1936;-42
2023/02/01 02:20:25;;;;;;;;;;;;;;;15.21;69.80;100924.78;7402201;19;2068;-42
2023/02/01 02:23:10;;;;;;;;;;;;;;;15.21;69.75;100933.63;7403620;19;1912;-42
2023/02/01 02:26:02;;;;;;;;;;;;;;;15.18;69.62;100941.84;7402824;19;1961;-42
2023/02/01 02:28:45;;;;;;;;;;;;;;;15.17;70.07;100933.94;7399426;19;2089;-42
2023/02/01 02:31:25;;;;;;;;;;;;;;;15.16;69.93;100932.22;7399781;19;2101;-42
2023/02/01 02:34:01;;;;;;;;;;;;;;;15.15;70.00;100927.88;7401076;19;1877;-43
2023/02/01 02:36:37;;;;;;;;;;;;;;;15.11;69.83;100920.06;7401989;19;1948;-42
2023/02/01 02:39:08;;;;;;;;;;;;;;;15.09;69.64;100927.31;7401973;19;1680;-42
2023/02/01 02:47:28;;;;;;;;;;;;;;;15.06;69.52;100935.53;7397413;19;2212;-42
2023/02/01 02:55:33;;;;;;;;;;;;;;;15.16;69.31;100926.91;7401112;19;1813;-43
2023/02/01 03:06:12;;;;;;;;;;;;;;;17.41;62.95;100921.91;7401255;19;1543;-42
2023/02/01 03:08:44;;;;;;;;;;;;;;;17.70;62.21;100917.72;7399318;19;1958;-43
2023/02/01 03:11:15;;;;;;;;;;;;;;;17.83;61.63;100906.06;7400569;19;1922;-42
2023/02/01 03:13:44;;;;;;;;;;;;;;;17.74;62.04;100907.63;7400402;19;1775;-42
2023/02/01 03:16:16;;;;;;;;;;;;;;;17.03;64.00;100915.91;7401081;19;1936;-42
2023/02/01 03:18:48;;;;;;;;;;;;;;;16.45;65.21;100928.31;7401821;19;1882;-42
2023/02/01 03:21:22;;;;;;;;;;;;;;;16.10;66.52;100931.78;7401797;19;1083;-42
2023/02/01 03:23:51;;;;;;;;;;;;;;;15.87;67.31;100939.63;7399500;19;2021;-42
2023/02/01 03:26:22;;;;;;;;;;;;;;;15.75;67.82;100935.19;7399648;19;1925;-42
2023/02/01 03:28:54;;;;;;;;;;;;;;;15.68;68.14;100944.56;7398431;19;1983;-42
2023/02/01 03:31:23;;;;;;;;;;;;;;;15.57;68.33;100949.81;7399263;19;1726;-42
2023/02/01 03:33:52;;;;;;;;;;;;;;;15.49;68.33;100937.84;7400429;19;1959;-42
2023/02/01 03:36:27;;;;;;;;;;;;;;;15.45;68.61;100954.19;7399982;19;2004;-43
2023/02/01 03:39:01;;;;;;;;;;;;;;;15.41;68.60;100948.22;7399534;19;2008;-42
2023/02/01 03:41:30;;;;;;;;;;;;;;;15.37;68.52;100944.06;7399634;19;1942;-42
2023/02/01 03:44:03;;;;;;;;;;;;;;;15.36;68.26;100954.81;7399943;19;1936;-42
2023/02/01 03:46:35;;;;;;;;;;;;;;;15.33;68.59;100953.22;7398918;19;1870;-42
2023/02/01 03:49:06;;;;;;;;;;;;;;;15.30;68.62;100962.28;7400220;19;1875;-43
2023/02/01 03:51:38;;;;;;;;;;;;;;;15.31;68.88;100963.97;7400443;19;1851;-42
2023/02/01 03:54:09;;;;;;;;;;;;;;;15.23;68.47;100952.16;7399270;19;2072;-42
2023/02/01 03:56:39;;;;;;;;;;;;;;;15.21;68.52;100938.94;7398290;19;1877;-42
2023/02/01 03:59:07;;;;;;;;;;;;;;;15.21;68.89;100946.94;7399165;19;1926;-42
2023/02/01 04:01:36;;;;;;;;;;;;;;;15.28;68.50;100936.72;7398619;19;1935;-42
2023/02/01 04:04:04;;;;;;;;;;;;;;;15.82;66.53;100947.13;7399633;19;1663;-42
2023/02/01 04:06:32;;;;;;;;;;;;;;;16.76;63.82;100958.06;7400001;19;1777;-42
2023/02/01 04:09:03;;;;;;;;;;;;;;;16.50;64.43;100936.84;7396672;19;1854;-42
2023/02/01 04:11:32;;;;;;;;;;;;;;;16.05;65.76;100966.78;7399683;19;1573;-42
2023/02/01 04:14:04;;;;;;;;;;;;;;;15.82;66.40;100964.94;7399756;19;1962;-42
2023/02/01 04:16:32;;;;;;;;;;;;;;;16.26;65.21;100964.38;7401044;19;1800;-42
2023/02/01 04:19:01;;;;;;;;;;;;;;;17.29;62.42;100945.09;7407154;19;2003;-42
2023/02/01 04:21:29;;;;;;;;;;;;;;;17.99;60.59;100945.84;7406366;19;1925;-42
2023/02/01 04:23:57;;;;;;;;;;;;;;;18.35;59.65;100954.50;7406519;19;1860;-43
2023/02/01 04:26:28;;;;;;;;;;;;;;;18.37;59.30;100941.84;7406001;19;1870;-42
2023/02/01 04:28:56;;;;;;;;;;;;;;;18.44;59.23;100953.72;7405000;19;1847;-42
2023/02/01 04:31:25;;;;;;;;;;;;;;;18.23;60.04;100951.84;7406274;19;2277;-42
2023/02/01 04:33:53;;;;;;;;;;;;;;;17.95;60.88;100957.75;7406066;19;1932;-42
2023/02/01 04:36:23;;;;;;;;;;;;;;;17.84;60.89;100947.91;7405645;19;1895;-42
2023/02/01 04:38:51;;;;;;;;;;;;;;;17.96;60.88;100943.38;7405136;19;1764;-42
2023/02/01 04:41:22;;;;;;;;;;;;;;;18.11;59.92;100931.44;7405213;19;1901;-42
2023/02/01 04:43:53;;;;;;;;;;;;;;;18.19;59.85;100934.34;7404812;19;2020;-42
2023/02/01 04:46:22;;;;;;;;;;;;;;;18.35;59.65;100950.00;7405060;19;1787;-42
2023/02/01 04:48:50;;;;;;;;;;;;;;;18.38;59.66;100938.16;7403724;19;1950;-42
2023/02/01 04:51:18;;;;;;;;;;;;;;;18.52;58.95;100924.47;7405529;19;1787;-42
2023/02/01 04:53:46;;;;;;;;;;;;;;;18.59;58.94;100931.03;7404933;19;1863;-42
2023/02/01 04:56:15;;;;;;;;;;;;;;;18.61;58.94;100939.78;7404417;19;1653;-42
2023/02/01 04:58:43;;;;;;;;;;;;;;;18.65;58.69;100937.69;7403759;19;1659;-42
2023/02/01 05:01:14;;;;;;;;;;;;;;;18.62;59.31;100940.63;7281303;19;14427;-42
2023/02/01 05:03:42;;;;;;;;;;;;;;;18.63;58.72;100943.19;7393953;19;1965;-42
2023/02/01 05:06:10;;;;;;;;;;;;;;;18.68;58.76;100942.78;7394424;19;1847;-42
2023/02/01 05:08:39;;;;;;;;;;;;;;;18.61;58.97;100934.41;7395524;19;1850;-43
2023/02/01 05:13:47;;;;;;;;;;;;;;;18.33;60.12;100961.81;7398380;19;1740;-43
2023/02/01 05:13:53;;;;;;;;;;;;;;;18.12;60.58;100965.25;7401596;19;1781;-43
2023/02/01 05:16:24;;;;;;;;;;;;;;;18.03;61.13;100939.25;7401605;19;1741;-43
2023/02/01 05:18:52;;;;;;;;;;;;;;;18.01;61.13;100944.72;7401543;19;2333;-43
2023/02/01 05:21:20;;;;;;;;;;;;;;;18.15;61.13;100934.72;7403801;19;1613;-42
2023/02/01 05:26:29;;;;;;;;;;;;;;;18.49;60.18;100956.88;7399719;19;2621;-42
2023/02/01 05:28:58;;;;;;;;;;;;;;;18.77;59.40;100952.72;7395774;19;1934;-42
2023/02/01 05:31:29;;;;;;;;;;;;;;;19.00;58.91;100941.91;7398784;19;2028;-42
2023/02/01 05:33:57;;;;;;;;;;;;;;;19.25;58.60;100951.38;7401212;19;1730;-43
2023/02/01 05:36:25;;;;;;;;;;;;;;;19.34;58.99;100953.28;7402522;19;1977;-43
2023/02/01 05:38:54;;;;;;;;;;;;;;;19.43;59.13;100957.81;7401949;19;1827;-43
2023/02/01 05:41:22;;;;;;;;;;;;;;;19.38;59.33;100948.50;7400467;19;1667;-43
2023/02/01 05:43:50;;;;;;;;;;;;;;;19.35;59.75;100946.91;7401146;19;1949;-43
2023/02/01 05:46:19;;;;;;;;;;;;;;;19.22;59.39;100947.16;7401557;19;2665;-42
2023/02/01 05:48:49;;;;;;;;;;;;;;;19.05;59.02;100937.84;7400296;19;1868;-42
2023/02/01 05:51:18;;;;;;;;;;;;;;;18.96;58.96;100921.72;7402977;19;1721;-42
2023/02/01 05:53:46;;;;;;;;;;;;;;;19.02;58.83;100950.66;7400827;19;2112;-42
2023/02/01 05:56:14;;;;;;;;;;;;;;;19.06;58.69;100944.09;7398402;19;1764;-42
2023/02/01 05:58:42;;;;;;;;;;;;;;;19.20;58.19;100937.50;7403268;19;1936;-42
2023/02/01 06:01:11;;;;;;;;;;;;;;;19.40;57.51;100950.06;7402129;19;1946;-42
2023/02/01 06:03:39;;;;;;;;;;;;;;;19.31;57.74;100950.84;7403480;19;1880;-42
2023/02/01 06:06:10;;;;;;;;;;;;;;;19.37;57.69;100962.88;7402805;19;2002;-42
2023/02/01 06:08:40;;;;;;;;;;;;;;;19.27;57.76;100960.97;7401695;19;1932;-43
2023/02/01 06:11:08;;;;;;;;;;;;;;;19.22;58.08;100959.72;7403063;19;1657;-43
2023/02/01 06:13:38;;;;;;;;;;;;;;;19.31;57.90;100953.53;7401063;19;1850;-42
2023/02/01 06:16:07;;;;;;;;;;;;;;;19.00;58.30;100960.66;7401368;19;1850;-43
2023/02/01 06:18:35;;;;;;;;;;;;;;;18.22;60.29;100963.53;7391749;19;1647;-43
2023/02/01 06:21:04;;;;;;;;;;;;;;;17.73;61.66;100983.50;7401210;19;1756;-43
2023/02/01 06:23:35;;;;;;;;;;;;;;;17.49;62.22;100975.63;7400371;19;2828;-43
2023/02/01 06:26:04;;;;;;;;;;;;;;;17.33;62.84;100978.63;7399505;19;1746;-43
2023/02/01 06:28:33;;;;;;;;;;;;;;;17.26;63.39;100972.03;7399489;19;1847;-43
2023/02/01 06:31:06;;;;;;;;;;;;;;;17.16;63.51;100973.75;7400927;19;1944;-44
2023/02/01 06:33:34;;;;;;;;;;;;;;;17.07;63.92;100970.81;7400036;19;1718;-43
2023/02/01 06:36:03;;;;;;;;;;;;;;;16.97;64.35;100975.16;7400136;19;1580;-43
2023/02/01 06:38:34;;;;;;;;;;;;;;;16.94;64.38;100978.03;7399531;19;1808;-43
2023/02/01 06:41:05;;;;;;;;;;;;;;;16.91;64.26;100980.97;7400722;19;1350;-43
2023/02/01 06:43:35;;;;;;;;;;;;;;;16.88;64.57;100986.53;7401471;19;1801;-43
2023/02/01 06:46:04;;;;;;;;;;;;;;;16.79;64.26;101005.88;7401727;19;1497;-43
2023/02/01 06:48:32;;;;;;;;;;;;;;;16.92;64.58;101004.03;7398812;19;2252;-43
2023/02/01 06:51:01;;;;;;;;;;;;;;;17.70;62.25;100997.13;7399900;19;1974;-43
2023/02/01 06:53:29;;;;;;;;;;;;;;;18.35;60.03;100986.63;7400011;19;1677;-43
2023/02/01 06:55:58;;;;;;;;;;;;;;;18.68;59.36;100993.66;7399310;19;1669;-44
2023/02/01 06:58:30;;;;;;;;;;;;;;;18.87;59.17;100993.88;7400494;19;1691;-43
2023/02/01 07:00:59;;;;;;;;;;;;;;;18.98;58.66;100998.34;7401009;19;1140;-43
2023/02/01 07:03:27;;;;;;;;;;;;;;;19.00;58.58;100982.97;7399498;19;1663;-43
2023/02/01 07:05:58;;;;;;;;;;;;;;;19.14;58.31;100999.69;7400526;19;1828;-43
2023/02/01 07:08:26;;;;;;;;;;;;;;;19.11;58.32;100989.25;7398178;19;1969;-43
2023/02/01 07:10:54;;;;;;;;;;;;;;;18.92;58.75;100988.16;7399667;19;1923;-43
2023/02/01 07:13:23;;;;;;;;;;;;;;;18.78;59.30;100997.31;7400490;19;1988;-43
2023/02/01 07:15:54;;;;;;;;;;;;;;;18.68;59.26;100991.88;7400545;19;2043;-43
2023/02/01 07:18:22;;;;;;;;;;;;;;;18.65;59.34;100989.44;7400187;19;2021;-43
2023/02/01 07:20:53;;;;;;;;;;;;;;;18.67;59.71;101008.91;7399310;19;1921;-43
2023/02/01 07:23:22;;;;;;;;;;;;;;;18.59;59.54;100983.75;7398118;19;1964;-43
2023/02/01 07:25:50;;;;;;;;;;;;;;;18.61;59.53;100997.84;7396713;19;1912;-43
2023/02/01 07:28:18;;;;;;;;;;;;;;;18.62;59.45;101005.78;7395824;19;1868;-43
2023/02/01 07:30:50;;;;;;;;;;;;;;;18.58;59.68;101003.47;7397196;19;1869;-43
2023/02/01 07:33:22;;;;;;;;;;;;;;;18.60;59.55;101006.84;7397723;19;1662;-43
2023/02/01 07:35:51;;;;;;;;;;;;;;;18.65;59.41;101005.50;7398561;19;1657;-43
2023/02/01 07:38:21;;;;;;;;;;;;;;;18.67;59.39;101008.91;7396349;19;1868;-43
2023/02/01 07:40:50;;;;;;;;;;;;;;;18.72;59.31;101002.31;7398920;19;1797;-43
2023/02/01 07:43:18;;;;;;;;;;;;;;;18.74;59.13;100998.56;7399576;19;2973;-43
2023/02/01 07:45:53;;;;;;;;;;;;;;;18.78;59.20;100993.75;7397469;19;1843;-45
2023/02/01 07:48:24;;;;;;;;;;;;;;;18.76;59.05;101001.94;7397390;19;1859;-44
2023/02/01 07:50:59;;;;;;;;;;;;;;;18.81;59.23;100998.91;7398305;19;1666;-44
2023/02/01 07:53:27;;;;;;;;;;;;;;;18.76;59.07;100991.22;7402878;19;1688;-44
2023/02/01 07:55:56;;;;;;;;;;;;;;;18.72;59.57;100991.59;7404278;19;1894;-43
2023/02/01 07:58:24;;;;;;;;;;;;;;;18.79;59.05;101006.19;7404058;19;1721;-43
2023/02/01 08:03:36;;;;;;;;;;;;;;;18.74;59.02;100997.69;7405512;19;1985;-43
2023/02/01 08:06:04;;;;;;;;;;;;;;;18.83;58.94;101000.47;7406190;19;1704;-43
2023/02/01 08:08:33;;;;;;;;;;;;;;;18.88;58.74;101000.94;7405146;19;1861;-43
2023/02/01 08:11:01;;;;;;;;;;;;;;;18.90;58.71;100995.47;7402036;19;1587;-43
2023/02/01 08:13:30;;;;;;;;;;;;;;;19.01;58.78;100997.22;7404433;19;1643;-43
2023/02/01 08:16:00;;;;;;;;;;;;;;;18.98;59.13;100994.78;7405141;19;1671;-43
2023/02/01 08:18:29;;;;;;;;;;;;;;;18.98;59.16;100995.66;7404809;19;1890;-43
2023/02/01 08:20:59;;;;;;;;;;;;;;;19.01;58.86;100983.81;7404671;19;1527;-43
2023/02/01 08:23:28;;;;;;;;;;;;;;;19.02;59.14;100986.38;7403267;19;1845;-43
2023/02/01 08:25:56;;;;;;;;;;;;;;;19.10;59.17;100990.22;7404702;19;1833;-43
2023/02/01 08:28:24;;;;;;;;;;;;;;;19.10;59.31;100977.69;7405782;19;1924;-43
2023/02/01 08:30:53;;;;;;;;;;;;;;;19.13;59.12;100996.19;7403320;19;1935;-43
2023/02/01 08:33:21;;;;;;;;;;;;;;;19.08;59.39;100979.66;7404382;19;2188;-43
2023/02/01 08:35:50;;;;;;;;;;;;;;;19.12;59.26;100975.72;7403011;19;1758;-44
2023/02/01 08:38:20;;;;;;;;;;;;;;;19.18;59.15;100975.19;7404030;19;1970;-43
2023/02/01 08:40:49;;;;;;;;;;;;;;;19.12;59.25;100996.31;7403401;19;1980;-43
2023/02/01 08:43:17;;;;;;;;;;;;;;;18.55;60.51;100988.50;7405982;19;2069;-43
2023/02/01 08:45:46;;;;;;;;;;;;;;;18.14;62.70;100984.69;7404284;19;2043;-43
2023/02/01 08:48:14;;;;;;;;;;;;;;;17.92;63.24;100982.06;7404356;19;1979;-43
2023/02/01 08:50:42;;;;;;;;;;;;;;;17.82;63.72;100992.63;7404017;19;1879;-43
2023/02/01 08:53:13;;;;;;;;;;;;;;;17.76;63.88;100995.78;7404891;19;1889;-43
2023/02/01 08:55:44;;;;;;;;;;;;;;;17.73;63.86;100991.53;7404377;19;1792;-43
2023/02/01 08:58:13;;;;;;;;;;;;;;;17.67;63.89;100990.19;7404546;19;1767;-43
2023/02/01 09:00:41;;;;;;;;;;;;;;;17.66;64.36;100974.25;7403839;19;1762;-43
2023/02/01 09:03:12;;;;;;;;;;;;;;;17.60;64.32;100993.47;7402510;19;2031;-43
2023/02/01 09:05:40;;;;;;;;;;;;;;;17.62;64.36;101004.91;7404515;19;1769;-43
2023/02/01 09:08:08;;;;;;;;;;;;;;;17.58;64.43;100992.75;7405755;19;1037;-43
2023/02/01 09:10:37;;;;;;;;;;;;;;;17.51;64.89;100981.69;7401701;19;2325;-43
2023/02/01 09:13:08;;;;;;;;;;;;;;;17.50;64.49;100996.84;7403354;19;1964;-43
2023/02/01 09:15:36;;;;;;;;;;;;;;;17.46;64.53;100963.31;7403141;19;2055;-43
2023/02/01 09:18:05;;;;;;;;;;;;;;;17.38;64.65;100960.41;7403690;19;2248;-43
2023/02/01 09:20:33;;;;;;;;;;;;;;;17.42;64.71;100969.03;7403088;19;1765;-43
2023/02/01 09:23:02;;;;;;;;;;;;;;;17.41;64.94;100957.50;7402952;19;1933;-43
2023/02/01 09:25:30;;;;;;;;;;;;;;;17.37;65.20;100953.38;7404065;19;1886;-43
2023/02/01 09:27:59;;;;;;;;;;;;;;;17.36;65.08;100964.16;7403647;19;1799;-43
2023/02/01 09:30:29;;;;;;;;;;;;;;;17.34;65.08;100947.41;7401637;19;2291;-43
2023/02/01 09:32:58;;;;;;;;;;;;;;;17.33;65.31;100954.56;7400431;19;2226;-43
2023/02/01 09:35:26;;;;;;;;;;;;;;;17.32;64.81;100960.88;7403408;19;1906;-43
2023/02/01 09:37:55;;;;;;;;;;;;;;;17.32;64.96;100944.84;7402962;19;1894;-43
2023/02/01 09:40:24;;;;;;;;;;;;;;;17.29;65.29;100953.97;7401837;19;2305;-43
2023/02/01 09:43:00;;;;;;;;;;;;;;;17.26;65.43;100950.66;7403362;19;1726;-43
2023/02/01 09:45:38;;;;;;;;;;;;;;;17.22;65.60;100943.84;7401924;19;1934;-43
2023/02/01 09:48:12;;;;;;;;;;;;;;;17.16;65.52;100933.66;7401828;19;1920;-43
2023/02/01 09:50:42;;;;;;;;;;;;;;;17.15;65.09;100930.13;7399238;19;1898;-44
2023/02/01 09:53:15;;;;;;;;;;;;;;;17.20;65.10;100935.13;7402043;19;1756;-43
2023/02/01 09:55:44;;;;;;;;;;;;;;;17.20;65.59;100941.31;7401181;19;1719;-43
2023/02/01 09:58:16;;;;;;;;;;;;;;;17.19;65.64;100960.13;7400832;19;1853;-43
2023/02/01 10:00:52;;;;;;;;;;;;;;;17.18;65.18;100942.41;7401749;19;1827;-43
2023/02/01 10:03:20;;;;;;;;;;;;;;;17.17;65.14;100943.34;7399676;19;2152;-43
2023/02/01 10:06:05;;;;;;;;;;;;;;;17.14;65.66;100952.47;7401801;19;1755;-43
2023/02/01 10:08:36;;;;;;;;;;;;;;;17.05;65.79;100916.63;7401309;19;1574;-43
2023/02/01 10:11:09;;;;;;;;;;;;;;;17.06;65.55;100929.00;7399652;19;1841;-43
2023/02/01 10:13:46;;;;;;;;;;;;;;;17.03;65.80;100926.59;7400810;19;1737;-43
2023/02/01 10:16:20;;;;;;;;;;;;;;;17.02;65.44;100926.69;7399880;19;1854;-43
2023/02/01 10:19:00;;;;;;;;;;;;;;;16.94;65.65;100900.56;7401426;19;2030;-43
2023/02/01 10:21:41;;;;;;;;;;;;;;;16.90;66.19;100912.47;7401810;19;1092;-43
2023/02/01 10:24:36;;;;;;;;;;;;;;;16.93;65.92;100928.28;7399723;19;1991;-43
2023/02/01 10:27:05;;;;;;;;;;;;;;;16.90;65.87;100912.47;7397422;19;1914;-43
2023/02/01 10:29:37;;;;;;;;;;;;;;;16.92;66.04;100897.19;7399996;19;1981;-43
2023/02/01 10:32:12;;;;;;;;;;;;;;;16.91;65.72;100906.19;7399888;19;1477;-43
2023/02/01 10:34:41;;;;;;;;;;;;;;;16.85;65.96;100895.94;7401671;19;1942;-43
2023/02/01 10:37:19;;;;;;;;;;;;;;;16.80;66.24;100887.41;7401279;19;2121;-43
2023/02/01 10:39:49;;;;;;;;;;;;;;;17.28;64.32;100893.44;7401026;19;1918;-43
2023/02/01 10:42:17;;;;;;;;;;;;;;;18.01;61.77;100871.63;7395244;19;2054;-43
2023/02/01 10:44:47;;;;;;;;;;;;;;;18.55;60.60;100869.81;7397536;19;1770;-43
2023/02/01 10:47:18;;;;;;;;;;;;;;;18.82;59.64;100866.63;7397337;19;1974;-43
2023/02/01 10:49:52;;;;;;;;;;;;;;;18.90;59.64;100861.47;7395614;19;1872;-43
2023/02/01 10:52:23;;;;;;;;;;;;;;;18.98;58.58;100844.72;7398985;19;1552;-43
2023/02/01 10:54:51;;;;;;;;;;;;;;;19.02;58.62;100857.75;7400375;19;1813;-43
2023/02/01 10:57:25;;;;;;;;;;;;;;;19.21;58.23;100848.91;7397262;19;1995;-44
2023/02/01 10:59:54;;;;;;;;;;;;;;;19.18;58.50;100854.56;7400525;19;1975;-43
2023/02/01 11:02:29;;;;;;;;;;;;;;;19.06;59.14;100844.91;7399979;19;1861;-43
2023/02/01 11:05:01;;;;;;;;;;;;;;;18.98;58.89;100842.91;7399148;19;1853;-43
2023/02/01 11:07:30;;;;;;;;;;;;;;;18.52;60.83;100844.13;7399505;19;1862;-43
2023/02/01 11:09:58;;;;;;;;;;;;;;;17.99;61.73;100850.34;7398229;19;2009;-43
2023/02/01 11:12:31;;;;;;;;;;;;;;;17.61;63.88;100837.41;7399085;19;1958;-43
2023/02/01 11:15:02;;;;;;;;;;;;;;;17.38;65.50;100844.59;7398398;19;2204;-44
2023/02/01 11:17:36;;;;;;;;;;;;;;;17.22;66.00;100842.31;7399528;19;2304;-44
2023/02/01 11:20:06;;;;;;;;;;;;;;;17.14;65.92;100834.91;7398524;19;1942;-44
2023/02/01 11:22:35;;;;;;;;;;;;;;;17.04;65.96;100810.72;7397923;19;1544;-44
2023/02/01 11:25:10;;;;;;;;;;;;;;;17.01;66.69;100818.13;7398885;19;1861;-43
2023/02/01 11:27:38;;;;;;;;;;;;;;;16.95;67.38;100803.47;7407372;19;1984;-44
2023/02/01 11:30:07;;;;;;;;;;;;;;;16.90;68.28;100835.00;7406531;19;1849;-44
2023/02/01 11:32:41;;;;;;;;;;;;;;;16.84;68.84;100819.47;7402773;19;2793;-45
2023/02/01 11:35:14;;;;;;;;;;;;;;;16.90;69.40;100816.31;7404467;19;2099;-44
2023/02/01 11:37:43;;;;;;;;;;;;;;;16.88;69.50;100820.94;7401063;19;2123;-45
2023/02/01 11:40:25;;;;;;;;;;;;;;;16.87;70.50;100801.38;7396945;19;1864;-45
2023/02/01 11:42:58;;;;;;;;;;;;;;;17.45;68.16;100806.56;7403598;19;1660;-45
2023/02/01 11:45:30;;;;;;;;;;;;;;;18.29;65.44;100781.84;7406004;19;1759;-45
2023/02/01 11:48:01;;;;;;;;;;;;;;;18.96;63.35;100793.09;7406441;19;1726;-44
2023/02/01 11:50:33;;;;;;;;;;;;;;;19.38;61.82;100777.72;7403212;19;2131;-45
2023/02/01 11:53:11;;;;;;;;;;;;;;;19.74;60.81;100772.72;7405468;19;1726;-45
2023/02/01 11:55:51;;;;;;;;;;;;;;;19.34;61.92;100789.72;7404268;19;1629;-44
2023/02/01 11:58:30;;;;;;;;;;;;;;;18.48;64.32;100779.31;7407242;19;1570;-44
2023/02/01 12:01:06;;;;;;;;;;;;;;;17.93;66.37;100799.19;7405423;19;2417;-43
2023/02/01 12:03:52;;;;;;;;;;;;;;;17.65;67.11;100796.06;7404834;19;2282;-44
2023/02/01 12:06:26;;;;;;;;;;;;;;;17.50;67.41;100782.97;7406591;19;1682;-44
2023/02/01 12:09:04;;;;;;;;;;;;;;;17.45;67.36;100800.38;7404622;19;1872;-44
2023/02/01 12:11:38;;;;;;;;;;;;;;;17.36;67.19;100788.59;7402511;19;1845;-44
2023/02/01 12:14:17;;;;;;;;;;;;;;;17.29;67.85;100769.53;7404634;19;1937;-44
2023/02/01 12:16:50;;;;;;;;;;;;;;;17.32;67.80;100781.78;7403178;19;1822;-44
2023/02/01 12:19:26;;;;;;;;;;;;;;;17.35;67.04;100767.31;7402164;19;1820;-44
2023/02/01 12:21:59;;;;;;;;;;;;;;;17.33;67.46;100759.44;7405218;19;1942;-45
2023/02/01 12:24:48;;;;;;;;;;;;;;;17.40;67.07;100751.78;7403376;19;1780;-44
2023/02/01 12:27:26;;;;;;;;;;;;;;;17.39;67.11;100764.28;7402593;19;2113;-44
2023/02/01 12:30:02;;;;;;;;;;;;;;;17.35;67.33;100768.19;7403822;19;1857;-44
2023/02/01 12:32:46;;;;;;;;;;;;;;;17.24;67.01;100765.53;7404483;19;2059;-44
2023/02/01 12:35:41;;;;;;;;;;;;;;;17.27;67.03;100759.94;7404100;19;1831;-44
2023/02/01 12:38:20;;;;;;;;;;;;;;;17.40;66.77;100762.47;7400506;19;2104;-44
2023/02/01 12:40:56;;;;;;;;;;;;;;;18.23;63.81;100751.09;7405087;19;1777;-44
2023/02/01 12:43:31;;;;;;;;;;;;;;;18.78;62.64;100755.31;7403629;19;1459;-44
2023/02/01 12:46:01;;;;;;;;;;;;;;;19.16;61.52;100741.25;7404172;19;1934;-44
2023/02/01 12:48:32;;;;;;;;;;;;;;;19.57;60.10;100759.97;7403121;19;1837;-45
2023/02/01 12:51:03;;;;;;;;;;;;;;;19.92;59.44;100753.25;7402678;19;1849;-45
2023/02/01 12:53:40;;;;;;;;;;;;;;;20.08;58.80;100732.03;7395998;19;1480;-45
2023/02/01 12:56:13;;;;;;;;;;;;;;;20.08;59.03;100723.97;7399513;19;1735;-46
2023/02/01 12:58:44;;;;;;;;;;;;;;;20.22;58.65;100733.41;7400074;19;1825;-46
2023/02/01 13:01:15;;;;;;;;;;;;;;;20.22;58.48;100728.88;7401145;19;1802;-45
2023/02/01 13:03:47;;;;;;;;;;;;;;;20.19;58.61;100722.97;7403899;19;1616;-45
2023/02/01 13:06:18;;;;;;;;;;;;;;;20.31;58.43;100729.84;7403932;19;1721;-45
2023/02/01 13:08:51;;;;;;;;;;;;;;;20.28;58.45;100719.41;7400783;19;2000;-45
2023/02/01 13:11:23;;;;;;;;;;;;;;;20.33;58.33;100735.09;7400821;19;1845;-46
2023/02/01 13:13:57;;;;;;;;;;;;;;;20.44;57.98;100726.88;7402927;19;2000;-45
2023/02/01 13:16:28;;;;;;;;;;;;;;;20.48;57.66;100736.31;7402346;19;1648;-45
2023/02/01 13:19:02;;;;;;;;;;;;;;;20.40;57.89;100726.31;7402598;19;1707;-45
2023/02/01 13:21:34;;;;;;;;;;;;;;;20.25;58.37;100719.69;7404507;19;1708;-45
2023/02/01 13:24:05;;;;;;;;;;;;;;;20.11;58.52;100737.09;7401824;19;1938;-45
2023/02/01 13:26:33;;;;;;;;;;;;;;;20.09;58.81;100722.97;7402232;19;1690;-45
2023/02/01 13:29:04;;;;;;;;;;;;;;;19.91;59.11;100741.63;7403286;19;1554;-45
2023/02/01 13:31:43;;;;;;;;;;;;;;;19.90;59.18;100733.75;7400307;19;1892;-45